createdAt,value
2017-06-20T03:30:53.496Z,20.80
2017-06-20T03:33:21.139Z,20.80
2017-06-20T03:35:49.582Z,20.90
2017-06-20T03:38:17.240Z,20.80
2017-06-20T03:40:44.903Z,20.90
2017-06-20T03:43:12.678Z,20.90
2017-06-20T03:45:40.337Z,20.90
2017-06-20T03:48:08.017Z,21.00
2017-06-20T03:50:35.673Z,21.00
2017-06-20T03:53:03.352Z,21.10
2017-06-20T03:55:31.788Z,21.10
2017-06-20T03:57:59.825Z,21.10
2017-06-20T04:00:27.474Z,21.10
2017-06-20T04:02:56.092Z,21.10
2017-06-20T04:05:23.755Z,21.10
2017-06-20T04:07:51.393Z,21.20
2017-06-20T04:10:19.048Z,21.30
2017-06-20T04:12:47.459Z,21.40
2017-06-20T04:15:15.119Z,21.40
2017-06-20T04:17:42.856Z,21.40
2017-06-20T04:20:10.921Z,21.30
2017-06-20T04:22:38.576Z,21.40
2017-06-20T04:25:06.992Z,21.40
2017-06-20T04:27:35.148Z,21.40
2017-06-20T04:30:02.803Z,21.30
2017-06-20T04:32:30.484Z,21.50
2017-06-20T04:34:58.137Z,21.60
2017-06-20T04:37:26.106Z,21.70
2017-06-20T04:39:53.765Z,21.80
2017-06-20T04:42:21.396Z,21.90
2017-06-20T04:44:49.492Z,22.00
2017-06-20T04:47:17.147Z,22.10
2017-06-20T04:49:44.806Z,22.10
2017-06-20T04:52:13.548Z,21.90
2017-06-20T04:54:41.331Z,21.90
2017-06-20T04:57:08.973Z,22.10
2017-06-20T04:59:37.310Z,22.20
2017-06-20T05:02:04.959Z,22.30
2017-06-20T05:04:33.357Z,22.30
2017-06-20T05:07:01.333Z,22.30
2017-06-20T05:09:28.973Z,22.30
2017-06-20T05:11:56.609Z,22.50
2017-06-20T05:14:24.607Z,22.60
2017-06-20T05:16:52.244Z,22.70
2017-06-20T05:19:19.896Z,22.40
2017-06-20T05:21:47.888Z,22.20
2017-06-20T05:24:16.293Z,22.70
2017-06-20T05:26:43.925Z,22.60
2017-06-20T05:29:12.732Z,22.50
2017-06-20T05:31:40.394Z,22.50
2017-06-20T05:34:08.061Z,22.60
2017-06-20T05:36:36.011Z,22.80
2017-06-20T05:39:04.414Z,23.10
2017-06-20T05:41:32.083Z,23.10
2017-06-20T05:44:00.120Z,23.10
2017-06-20T05:46:27.761Z,23.10
2017-06-20T05:48:55.394Z,23.20
2017-06-20T05:51:23.434Z,23.40
2017-06-20T05:53:51.134Z,23.50
2017-06-20T05:56:18.829Z,23.60
2017-06-20T05:58:47.661Z,23.80
2017-06-20T06:01:15.320Z,23.70
2017-06-20T06:03:42.962Z,24.00
2017-06-20T06:06:11.040Z,24.10
2017-06-20T06:08:38.811Z,24.20
2017-06-20T06:11:06.496Z,24.40
2017-06-20T06:13:34.644Z,24.50
2017-06-20T06:16:02.307Z,24.40
2017-06-20T06:18:29.956Z,24.40
2017-06-20T06:20:58.022Z,24.60
2017-06-20T06:23:26.434Z,24.90
2017-06-20T06:25:54.096Z,24.90
2017-06-20T06:28:22.134Z,25.20
2017-06-20T06:30:50.552Z,25.70
2017-06-20T06:33:18.197Z,25.70
2017-06-20T06:35:46.235Z,26.10
2017-06-20T06:38:14.652Z,26.40
2017-06-20T06:40:42.296Z,26.40
2017-06-20T06:43:10.371Z,26.40
2017-06-20T06:45:38.021Z,26.40
2017-06-20T06:48:06.446Z,26.30
2017-06-20T06:50:34.476Z,26.30
2017-06-20T06:53:02.242Z,26.40
2017-06-20T06:55:29.895Z,26.80
2017-06-20T06:57:58.633Z,26.80
2017-06-20T07:00:26.385Z,26.80
2017-06-20T07:02:54.105Z,26.90
2017-06-20T07:05:22.906Z,27.60
2017-06-20T07:07:51.321Z,27.70
2017-06-20T07:10:18.965Z,27.70
2017-06-20T07:12:47.013Z,27.50
2017-06-20T07:15:14.672Z,27.50
2017-06-20T07:17:43.104Z,27.60
2017-06-20T07:20:11.146Z,27.60
2017-06-20T07:22:38.808Z,27.50
2017-06-20T07:25:06.453Z,27.10
2017-06-20T07:27:34.430Z,27.20
2017-06-20T07:30:02.093Z,27.50
2017-06-20T07:32:29.759Z,27.50
2017-06-20T07:34:57.812Z,27.70
2017-06-20T07:37:25.465Z,28.10
2017-06-20T07:39:53.982Z,28.30
2017-06-20T07:42:22.016Z,28.30
2017-06-20T07:44:50.442Z,28.60
2017-06-20T07:47:18.206Z,28.60
2017-06-20T07:49:46.196Z,28.70
2017-06-20T07:52:13.853Z,28.80
2017-06-20T07:54:41.533Z,29.00
2017-06-20T07:57:09.258Z,29.30
2017-06-20T07:59:36.924Z,29.60
2017-06-20T08:02:04.697Z,30.00
2017-06-20T08:04:32.352Z,29.90
2017-06-20T08:07:00.096Z,29.70
2017-06-20T08:09:27.838Z,30.10
2017-06-20T08:11:56.631Z,30.20
2017-06-20T08:14:25.059Z,30.30
2017-06-20T08:16:52.746Z,30.20
2017-06-20T08:19:20.409Z,30.70
2017-06-20T08:21:53.703Z,31.50
2017-06-20T08:24:21.377Z,31.60
2017-06-20T08:26:49.795Z,31.00
2017-06-20T08:29:17.484Z,31.00
2017-06-20T08:31:45.132Z,31.80
2017-06-20T08:34:12.809Z,31.50
2017-06-20T08:36:40.463Z,32.10
2017-06-20T08:39:08.511Z,33.50
2017-06-20T08:41:36.160Z,33.70
2017-06-20T08:44:03.819Z,33.50
2017-06-20T08:46:31.482Z,34.20
2017-06-20T08:48:59.121Z,34.90
2017-06-20T08:51:26.786Z,34.70
2017-06-20T08:53:55.207Z,35.80
2017-06-20T08:56:22.935Z,35.70
2017-06-20T08:58:51.357Z,36.40
2017-06-20T09:01:20.306Z,36.40
2017-06-20T09:03:48.712Z,40.00
2017-06-20T09:06:16.370Z,39.90
2017-06-20T09:08:44.114Z,40.30
2017-06-20T09:11:11.843Z,40.40
2017-06-20T09:13:39.516Z,40.80
2017-06-20T09:16:07.163Z,41.80
2017-06-20T09:18:34.831Z,42.00
2017-06-20T09:21:02.488Z,42.30
2017-06-20T09:23:30.162Z,41.70
2017-06-20T09:25:57.808Z,41.20
2017-06-20T09:28:25.825Z,42.20
2017-06-20T09:30:53.490Z,42.50
2017-06-20T09:33:21.154Z,41.60
2017-06-20T09:35:48.872Z,41.80
2017-06-20T09:38:16.536Z,41.50
2017-06-20T09:40:44.565Z,40.70
2017-06-20T09:43:17.911Z,41.40
2017-06-20T09:45:45.896Z,41.60
2017-06-20T09:48:14.352Z,40.50
2017-06-20T09:50:42.009Z,40.50
2017-06-20T09:53:10.141Z,38.30
2017-06-20T09:55:37.802Z,40.70
2017-06-20T09:58:05.458Z,41.20
2017-06-20T10:00:33.548Z,41.80
2017-06-20T10:03:01.181Z,42.60
2017-06-20T10:05:29.588Z,39.10
2017-06-20T10:07:57.640Z,39.10
2017-06-20T10:10:25.396Z,39.70
2017-06-20T10:12:53.803Z,39.50
2017-06-20T10:15:21.782Z,39.50
2017-06-20T10:17:49.435Z,38.80
2017-06-20T10:20:17.093Z,37.40
2017-06-20T10:22:45.085Z,37.20
2017-06-20T10:25:12.749Z,35.90
2017-06-20T10:27:40.392Z,36.20
2017-06-20T10:30:08.407Z,36.80
2017-06-20T10:32:36.060Z,36.90
2017-06-20T10:35:03.824Z,38.70
2017-06-20T10:37:31.825Z,39.60
2017-06-20T10:40:00.233Z,38.30
2017-06-20T10:42:27.864Z,38.30
2017-06-20T10:44:56.628Z,34.50
2017-06-20T10:47:24.281Z,34.50
2017-06-20T10:49:51.922Z,33.30
2017-06-20T10:52:19.904Z,33.30
2017-06-20T10:54:47.558Z,33.20
2017-06-20T10:57:15.188Z,33.10
2017-06-20T10:59:43.248Z,32.60
2017-06-20T11:02:10.904Z,32.40
2017-06-20T11:04:38.564Z,33.10
2017-06-20T11:07:06.651Z,33.40
2017-06-20T11:09:34.368Z,33.40
2017-06-20T11:12:02.019Z,33.40
2017-06-20T11:14:30.046Z,33.00
2017-06-20T11:16:57.811Z,33.20
2017-06-20T11:19:25.465Z,33.40
2017-06-20T11:21:53.571Z,33.10
2017-06-20T11:24:21.240Z,32.80
2017-06-20T11:26:48.902Z,32.70
2017-06-20T11:29:16.914Z,32.90
2017-06-20T11:31:45.414Z,33.70
2017-06-20T11:34:14.044Z,33.80
2017-06-20T11:36:42.065Z,33.60
2017-06-20T11:39:09.729Z,33.00
2017-06-20T11:41:37.391Z,32.70
2017-06-20T11:44:05.057Z,32.50
2017-06-20T11:46:32.685Z,32.70
2017-06-20T11:49:00.781Z,32.80
2017-06-20T11:51:29.221Z,32.10
2017-06-20T11:53:56.874Z,32.10
2017-06-20T11:56:24.890Z,32.70
2017-06-20T11:58:53.316Z,32.40
2017-06-20T12:01:20.968Z,32.40
2017-06-20T12:03:49.115Z,32.40
2017-06-20T12:06:16.770Z,32.20
2017-06-20T12:08:46.005Z,32.10
2017-06-20T12:11:14.026Z,32.10
2017-06-20T12:13:42.446Z,32.60
2017-06-20T12:16:10.109Z,32.60
2017-06-20T12:18:38.153Z,33.10
2017-06-20T12:21:05.836Z,33.40
2017-06-20T12:23:33.494Z,33.80
2017-06-20T12:26:01.173Z,34.10
2017-06-20T12:28:28.819Z,33.90
2017-06-20T12:30:56.500Z,33.60
2017-06-20T12:33:24.481Z,33.80
2017-06-20T12:35:52.150Z,33.80
2017-06-20T12:38:19.805Z,34.10
2017-06-20T12:40:47.781Z,33.80
2017-06-20T12:43:15.516Z,33.90
2017-06-20T12:45:43.164Z,34.30
2017-06-20T12:48:10.812Z,34.00
2017-06-20T12:50:38.452Z,32.90
2017-06-20T12:53:06.124Z,32.70
2017-06-20T12:55:34.220Z,33.10
2017-06-20T12:58:02.275Z,33.30
2017-06-20T13:00:30.704Z,33.40
2017-06-20T13:02:58.350Z,33.40
2017-06-20T13:05:26.378Z,33.50
2017-06-20T13:07:54.777Z,33.30
2017-06-20T13:10:22.430Z,33.30
2017-06-20T13:12:50.511Z,33.60
2017-06-20T13:15:18.167Z,33.30
2017-06-20T13:17:45.844Z,33.00
2017-06-20T13:20:13.899Z,33.00
2017-06-20T13:22:41.534Z,33.40
2017-06-20T13:25:09.218Z,33.50
2017-06-20T13:27:38.114Z,33.70
2017-06-20T13:30:05.757Z,33.70
2017-06-20T13:32:34.175Z,33.70
2017-06-20T13:35:02.316Z,33.70
2017-06-20T13:37:30.718Z,33.70
2017-06-20T13:39:58.441Z,33.70
2017-06-20T13:42:26.496Z,33.50
2017-06-20T13:44:54.239Z,33.40
2017-06-20T13:47:21.985Z,33.70
2017-06-20T13:49:50.041Z,33.30
2017-06-20T13:52:17.839Z,33.40
2017-06-20T13:54:45.657Z,32.60
2017-06-20T13:57:14.103Z,33.30
2017-06-20T13:59:41.760Z,33.30
2017-06-20T14:02:09.428Z,33.40
2017-06-20T14:04:37.152Z,33.00
2017-06-20T14:07:04.850Z,33.10
2017-06-20T14:09:38.638Z,33.20
2017-06-20T14:12:07.498Z,33.20
2017-06-20T14:14:35.190Z,33.20
2017-06-20T14:17:02.906Z,33.20
2017-06-20T14:19:31.345Z,32.20
2017-06-20T14:21:59.008Z,32.20
2017-06-20T14:24:26.820Z,32.60
2017-06-20T14:26:55.249Z,33.30
2017-06-20T14:29:22.903Z,33.30
2017-06-20T14:31:50.673Z,33.20
2017-06-20T14:34:18.725Z,33.20
2017-06-20T14:36:46.447Z,33.50
2017-06-20T14:39:14.181Z,33.30
2017-06-20T14:41:42.102Z,33.30
2017-06-20T14:44:09.878Z,33.50
2017-06-20T14:46:37.554Z,33.80
2017-06-20T14:49:05.228Z,33.50
2017-06-20T14:51:32.906Z,33.60
2017-06-20T14:54:00.995Z,33.40
2017-06-20T14:56:28.892Z,33.60
2017-06-20T14:58:56.577Z,33.40
2017-06-20T15:01:24.799Z,33.20
2017-06-20T15:03:52.459Z,33.10
2017-06-20T15:06:20.097Z,33.20
2017-06-20T15:08:47.781Z,33.20
2017-06-20T15:11:15.463Z,33.00
2017-06-20T15:13:43.901Z,33.30
2017-06-20T15:16:11.569Z,33.30
2017-06-20T15:18:39.542Z,33.50
2017-06-20T15:21:07.203Z,33.70
2017-06-20T15:23:34.867Z,33.70
2017-06-20T15:26:02.547Z,33.60
2017-06-20T15:28:30.213Z,33.50
2017-06-20T15:30:57.975Z,33.30
2017-06-20T15:33:25.646Z,33.20
2017-06-20T15:35:54.104Z,33.40
2017-06-20T15:38:21.745Z,33.40
2017-06-20T15:40:49.723Z,33.70
2017-06-20T15:43:17.381Z,33.50
2017-06-20T15:45:45.095Z,33.60
2017-06-20T15:48:12.773Z,33.60
2017-06-20T15:50:40.455Z,33.40
2017-06-20T15:53:08.143Z,33.20
2017-06-20T15:55:35.813Z,32.90
2017-06-20T15:58:03.809Z,33.00
2017-06-20T16:00:31.495Z,33.10
2017-06-20T16:02:59.192Z,33.30
2017-06-20T16:05:26.910Z,33.50
2017-06-20T16:07:54.570Z,33.60
2017-06-20T16:10:22.266Z,33.70
2017-06-20T16:12:51.133Z,33.70
2017-06-20T16:15:18.924Z,33.60
2017-06-20T16:17:47.563Z,33.70
2017-06-20T16:20:15.665Z,33.70
2017-06-20T16:22:43.440Z,33.70
2017-06-20T16:25:11.121Z,33.70
2017-06-20T16:27:39.156Z,33.70
2017-06-20T16:30:06.833Z,33.50
2017-06-20T16:32:34.509Z,33.50
2017-06-20T16:35:02.229Z,33.50
2017-06-20T16:37:29.908Z,33.30
2017-06-20T16:39:57.637Z,33.30
2017-06-20T16:42:26.136Z,32.90
2017-06-20T16:44:53.858Z,32.90
2017-06-20T16:47:21.555Z,33.10
2017-06-20T16:49:49.687Z,33.20
2017-06-20T16:52:17.398Z,33.10
2017-06-20T16:54:45.282Z,33.00
2017-06-20T16:57:13.337Z,33.00
2017-06-20T16:59:41.003Z,33.10
2017-06-20T17:02:08.696Z,33.10
2017-06-20T17:04:36.397Z,33.10
2017-06-20T17:07:04.108Z,33.10
2017-06-20T17:09:31.761Z,33.20
2017-06-20T17:11:59.764Z,33.20
2017-06-20T17:14:27.427Z,33.00
2017-06-20T17:16:55.145Z,32.90
2017-06-20T17:19:22.837Z,32.90
2017-06-20T17:21:50.520Z,33.00
2017-06-20T17:24:18.224Z,33.10
2017-06-20T17:26:45.931Z,33.10
2017-06-20T17:29:13.634Z,33.00
2017-06-20T17:31:42.065Z,32.80
2017-06-20T17:34:09.783Z,32.80
2017-06-20T17:36:38.299Z,32.70
2017-06-20T17:39:05.979Z,32.70
2017-06-20T17:41:33.715Z,32.70
2017-06-20T17:47:10.126Z,32.60
2017-06-20T17:49:37.778Z,32.60
2017-06-20T17:55:00.435Z,32.40
2017-06-20T17:57:28.141Z,32.30
2017-06-20T17:59:55.816Z,32.30
2017-06-20T18:02:23.841Z,32.30
2017-06-20T18:04:51.514Z,32.20
2017-06-20T18:07:19.174Z,32.10
2017-06-20T18:09:46.832Z,32.10
2017-06-20T18:12:14.484Z,32.00
2017-06-20T18:14:42.141Z,31.90
2017-06-20T18:17:09.804Z,31.90
2017-06-20T18:19:37.608Z,31.90
2017-06-20T18:22:05.294Z,31.90
2017-06-20T19:02:03.854Z,30.40
2017-06-20T19:04:32.265Z,30.30
2017-06-20T19:06:59.914Z,30.30
2017-06-20T19:09:27.597Z,30.30
2017-06-20T19:11:55.283Z,30.20
2017-06-20T19:14:23.584Z,30.20
2017-06-20T19:16:51.273Z,30.10
2017-06-20T19:19:18.937Z,30.10
2017-06-20T19:21:46.929Z,30.00
2017-06-20T19:24:14.585Z,30.00
2017-06-20T19:26:42.314Z,29.90
2017-06-20T19:29:11.100Z,29.70
2017-06-20T19:31:39.514Z,29.60
2017-06-20T19:34:07.187Z,29.70
2017-06-20T19:36:35.229Z,29.60
2017-06-20T19:39:02.869Z,29.60
2017-06-20T19:41:31.307Z,29.50
2017-06-20T19:43:59.302Z,29.50
2017-06-20T19:46:26.977Z,29.40
2017-06-20T19:48:54.644Z,29.30
2017-06-20T19:51:23.571Z,29.20
2017-06-20T19:53:51.353Z,29.20
2017-06-20T19:56:19.030Z,29.20
2017-06-20T19:58:47.795Z,29.10
2017-06-20T20:01:15.486Z,29.10
2017-06-20T20:03:43.181Z,29.10
2017-06-20T20:06:11.934Z,28.90
2017-06-20T20:08:39.722Z,28.90
2017-06-20T20:11:07.498Z,28.80
2017-06-20T20:13:36.313Z,28.70
2017-06-20T20:16:03.993Z,28.70
2017-06-20T20:18:31.652Z,28.70
2017-06-20T20:20:59.732Z,28.60
2017-06-20T20:23:27.411Z,28.50
2017-06-20T20:25:55.059Z,28.50
2017-06-20T20:28:23.094Z,28.40
2017-06-20T20:30:50.754Z,28.40
2017-06-20T20:33:18.439Z,28.40
2017-06-20T20:35:46.486Z,28.30
2017-06-20T20:38:14.156Z,28.30
2017-06-20T20:40:41.845Z,28.20
2017-06-20T20:43:09.877Z,28.10
2017-06-20T20:45:38.302Z,27.90
2017-06-20T20:48:05.969Z,27.90
2017-06-20T20:50:34.012Z,27.90
2017-06-20T20:53:01.662Z,27.80
2017-06-20T20:55:29.300Z,27.80
2017-06-20T20:57:58.046Z,27.70
2017-06-20T21:00:25.704Z,27.70
2017-06-20T21:02:53.376Z,27.60
2017-06-20T21:05:21.413Z,27.50
2017-06-20T21:07:49.111Z,27.50
2017-06-20T21:10:16.777Z,27.40
2017-06-20T21:12:44.810Z,27.40
2017-06-20T21:15:12.453Z,27.40
2017-06-20T21:17:40.954Z,27.20
2017-06-20T21:20:08.940Z,27.20
2017-06-20T21:22:36.576Z,27.10
2017-06-20T21:25:04.223Z,27.10
2017-06-20T21:27:33.005Z,27.10
2017-06-20T21:30:01.433Z,27.10
